Terminal Aerodrome Forecast
Issued by NWS

Home | Current Version | Previous Version | Text Only | Print | Product List | Glossary On
Versions: 1 2 3 4 5 6 7 8 9 10 11 12 13 14 15 16 17 18 19
000
FTUS41 KCLE 310500
TAFFDY
TAF
KFDY 310538Z 3106/0106 22005KT P6SM SCT250
     FM311500 21008KT P6SM BKN120
     FM312100 23010KT P6SM OVC070
     FM010300 23008KT P6SM OVC035=

USA.gov is the U.S. government's official web portal to all federal, state and local government web resources and services.